Ashintilly, Georgia
Current Conditions -  °F | °C
As of 12:55 PM on Wednesday 28 Jan 2015 (Local Time) from KBQK Reporting Station
Clear Clear  
Wind Chill: 52°   Ceiling: Unl
Heat Index: 52°   Visibility: 10mi
Dew Point: 19°   Wind: 6mph
Humidity: 28%   Direction: 30°NNE
Pressure: 30.26"   Gusts: NA
Location:  31.5632°N, 81.4638°W
Report Text: KBQK 281755Z AUTO 03005KT 10SM CLR 11/M07 A3026 RMK AO1
Loading
Personal Weather Stations






























Interactive Weather Map New forecast layout! Learn more

10-Day Weather Forecast

Advertisements
Track Severe Weather on mobile